createdAt,value
2017-05-24T00:00:07.407Z,0
2017-05-24T00:01:07.735Z,0
2017-05-24T00:03:07.784Z,0
2017-05-24T00:05:22.447Z,0
2017-05-24T00:06:07.857Z,0
2017-05-24T00:07:07.882Z,0
2017-05-24T00:08:22.521Z,0
2017-05-24T00:09:07.929Z,0
2017-05-24T00:10:07.953Z,0
2017-05-24T00:11:07.975Z,0
2017-05-24T00:12:07.696Z,0
2017-05-24T00:13:08.023Z,0
2017-05-24T00:14:08.047Z,0
2017-05-24T00:15:07.766Z,0
2017-05-24T00:16:22.713Z,0
2017-05-24T00:17:22.735Z,0
2017-05-24T00:18:08.144Z,0
2017-05-24T00:20:08.189Z,0
2017-05-24T00:21:22.892Z,0
2017-05-24T00:22:07.935Z,0
2017-05-24T00:23:08.266Z,0
2017-05-24T00:24:22.905Z,0
2017-05-24T00:25:08.009Z,0
2017-05-24T00:26:08.334Z,0
2017-05-24T00:27:08.112Z,0
2017-05-24T00:28:08.385Z,0
2017-05-24T00:29:08.102Z,0
2017-05-24T00:30:08.430Z,0
2017-05-24T00:31:08.459Z,0
2017-05-24T00:32:08.175Z,0
2017-05-24T00:33:23.118Z,0
2017-05-24T00:34:08.528Z,0
2017-05-24T00:35:23.233Z,0
2017-05-24T00:36:08.573Z,0
2017-05-24T00:38:08.625Z,0
2017-05-24T00:39:08.341Z,0
2017-05-24T00:40:23.285Z,0
2017-05-24T00:41:08.691Z,0
2017-05-24T00:42:08.110Z,0
2017-05-24T00:43:08.743Z,0
2017-05-24T00:44:08.763Z,0
2017-05-24T00:45:08.487Z,0
2017-05-24T00:46:08.811Z,0
2017-05-24T00:47:08.529Z,0
2017-05-24T00:48:08.858Z,0
2017-05-24T00:49:08.580Z,0
2017-05-24T00:51:08.928Z,0
2017-05-24T00:52:08.651Z,0
2017-05-24T00:53:08.977Z,0
2017-05-24T00:54:09.003Z,0
2017-05-24T00:55:23.641Z,0
2017-05-24T00:56:09.050Z,0
2017-05-24T00:57:09.070Z,0
2017-05-24T00:58:09.099Z,0
2017-05-24T00:59:09.121Z,0
2017-05-24T01:00:09.150Z,0
2017-05-24T01:01:09.164Z,0
2017-05-24T01:02:09.187Z,0
2017-05-24T01:03:09.219Z,0
2017-05-24T01:04:08.935Z,0
2017-05-24T01:05:23.572Z,0
2017-05-24T01:06:09.281Z,0
2017-05-24T01:08:09.030Z,0
2017-05-24T01:09:09.361Z,0
2017-05-24T01:10:09.074Z,0
2017-05-24T01:11:09.401Z,0
2017-05-24T01:12:09.424Z,0
2017-05-24T01:13:09.458Z,0
2017-05-24T01:14:09.169Z,0
2017-05-24T01:15:09.496Z,0
2017-05-24T01:16:09.516Z,0
2017-05-24T01:17:09.543Z,0
2017-05-24T01:18:09.263Z,0
2017-05-24T01:19:24.206Z,0
2017-05-24T01:20:24.230Z,0
2017-05-24T01:21:09.329Z,0
2017-05-24T01:22:09.353Z,0
2017-05-24T01:25:09.733Z,0
2017-05-24T01:26:09.756Z,0
2017-05-24T01:27:24.390Z,0
2017-05-24T01:28:09.494Z,0
2017-05-24T01:29:09.520Z,0
2017-05-24T01:30:09.844Z,0
2017-05-24T01:31:09.868Z,0
2017-05-24T01:32:09.589Z,0
2017-05-24T01:33:09.922Z,0
2017-05-24T01:34:09.330Z,0
2017-05-24T01:35:09.656Z,0
2017-05-24T01:36:09.682Z,0
2017-05-24T01:37:09.403Z,0
2017-05-24T01:38:09.728Z,0
2017-05-24T01:39:09.755Z,0
2017-05-24T01:40:10.078Z,0
2017-05-24T01:41:09.492Z,0
2017-05-24T01:43:24.764Z,0
2017-05-24T01:44:09.867Z,0
2017-05-24T01:45:09.586Z,0
2017-05-24T01:46:09.914Z,0
2017-05-24T01:47:10.239Z,0
2017-05-24T01:48:09.959Z,0
2017-05-24T01:49:09.985Z,0
2017-05-24T01:50:10.308Z,0
2017-05-24T01:51:10.335Z,0
2017-05-24T01:52:10.360Z,0
2017-05-24T01:53:10.384Z,0
2017-05-24T01:54:10.403Z,0
2017-05-24T01:55:10.424Z,0
2017-05-24T01:56:25.065Z,0
2017-05-24T01:57:10.470Z,0
2017-05-24T01:58:10.190Z,0
2017-05-24T01:59:25.138Z,0
2017-05-24T02:00:10.237Z,0
2017-05-24T02:02:10.289Z,0
2017-05-24T02:03:10.607Z,0
2017-05-24T02:04:10.637Z,0
2017-05-24T02:05:10.351Z,0
2017-05-24T02:06:24.992Z,0
2017-05-24T02:07:25.319Z,0
2017-05-24T02:08:10.432Z,0
2017-05-24T02:09:10.447Z,0
2017-05-24T02:10:10.467Z,0
2017-05-24T02:11:10.798Z,0
2017-05-24T02:12:10.209Z,0
2017-05-24T02:13:10.840Z,0
2017-05-24T02:14:10.863Z,0
2017-05-24T02:15:25.200Z,0
2017-05-24T02:16:10.910Z,0
2017-05-24T02:17:25.555Z,0
2017-05-24T02:18:10.651Z,0
2017-05-24T02:19:10.978Z,0
2017-05-24T02:20:25.620Z,0
2017-05-24T02:21:11.023Z,4
2017-05-24T02:22:11.046Z,4
2017-05-24T02:23:10.769Z,4
2017-05-24T02:24:11.098Z,0
2017-05-24T02:25:11.114Z,4
2017-05-24T02:26:11.137Z,4
2017-05-24T02:27:10.861Z,4
2017-05-24T02:28:11.188Z,4
2017-05-24T02:29:11.213Z,4
2017-05-24T02:30:25.547Z,4
2017-05-24T02:31:10.969Z,4
2017-05-24T02:32:10.973Z,8
2017-05-24T02:33:25.922Z,4
2017-05-24T02:34:11.018Z,8
2017-05-24T02:35:11.345Z,8
2017-05-24T02:36:11.063Z,8
2017-05-24T02:37:11.389Z,12
2017-05-24T02:38:25.730Z,12
2017-05-24T02:39:26.054Z,8
2017-05-24T02:40:11.459Z,8
2017-05-24T02:41:11.482Z,12
2017-05-24T02:42:11.515Z,12
2017-05-24T02:43:25.538Z,16
2017-05-24T02:45:11.578Z,20
2017-05-24T02:46:11.599Z,24
2017-05-24T02:47:11.317Z,28
2017-05-24T02:48:11.645Z,32
2017-05-24T02:50:11.081Z,36
2017-05-24T02:51:11.711Z,36
2017-05-24T02:52:11.431Z,44
2017-05-24T02:53:11.458Z,44
2017-05-24T02:54:11.803Z,48
2017-05-24T02:55:11.801Z,52
2017-05-24T02:56:11.522Z,60
2017-05-24T02:57:11.850Z,60
2017-05-24T02:58:11.869Z,64
2017-05-24T02:59:11.896Z,72
2017-05-24T03:02:26.580Z,100
2017-05-24T03:03:11.686Z,100
2017-05-24T03:04:12.015Z,104
2017-05-24T03:05:12.031Z,124
2017-05-24T03:06:12.074Z,116
2017-05-24T03:07:11.773Z,156
2017-05-24T03:08:11.836Z,192
2017-05-24T03:09:12.124Z,172
2017-05-24T03:10:26.461Z,160
2017-05-24T03:11:11.868Z,160
2017-05-24T03:12:12.193Z,168
2017-05-24T03:13:12.222Z,196
2017-05-24T03:14:12.245Z,228
2017-05-24T03:15:11.957Z,232
2017-05-24T03:16:26.899Z,228
2017-05-24T03:17:12.001Z,228
2017-05-24T03:18:26.947Z,252
2017-05-24T03:19:12.356Z,248
2017-05-24T03:20:12.071Z,272
2017-05-24T03:21:11.792Z,320
2017-05-24T03:22:12.421Z,368
2017-05-24T03:23:12.144Z,468
2017-05-24T03:24:11.862Z,516
2017-05-24T03:25:12.496Z,532
2017-05-24T03:26:12.209Z,540
2017-05-24T03:27:12.232Z,480
2017-05-24T03:29:12.280Z,528
2017-05-24T03:30:12.610Z,596
2017-05-24T03:31:12.626Z,652
2017-05-24T03:32:12.046Z,732
2017-05-24T03:33:12.673Z,700
2017-05-24T03:34:27.311Z,780
2017-05-24T03:36:12.439Z,1176
2017-05-24T03:37:12.765Z,1524
2017-05-24T03:38:12.791Z,1828
2017-05-24T03:39:12.510Z,1916
2017-05-24T03:40:12.226Z,1856
2017-05-24T03:41:27.171Z,1704
2017-05-24T03:42:12.582Z,1760
2017-05-24T03:43:12.601Z,1888
2017-05-24T03:44:12.627Z,1888
2017-05-24T03:45:12.947Z,1796
2017-05-24T03:46:27.589Z,1892
2017-05-24T03:47:12.995Z,2196
2017-05-24T03:48:12.414Z,2208
2017-05-24T03:49:12.739Z,2040
2017-05-24T03:50:27.681Z,1948
2017-05-24T03:51:12.783Z,2148
2017-05-24T03:52:12.859Z,1608
2017-05-24T03:53:13.137Z,1484
2017-05-24T03:54:13.166Z,1292
2017-05-24T03:55:13.179Z,1004
2017-05-24T03:56:13.199Z,1112
2017-05-24T03:57:13.227Z,1288
2017-05-24T03:58:27.865Z,760
2017-05-24T03:59:27.888Z,660
2017-05-24T04:00:12.994Z,664
2017-05-24T04:02:13.037Z,648
2017-05-24T04:03:13.061Z,592
2017-05-24T04:04:13.089Z,548
2017-05-24T04:05:42.650Z,600
2017-05-24T04:06:13.437Z,592
2017-05-24T04:07:13.455Z,548
2017-05-24T04:08:13.178Z,504
2017-05-24T04:09:27.516Z,508
2017-05-24T04:10:13.526Z,512
2017-05-24T04:11:13.551Z,524
2017-05-24T04:12:13.572Z,492
2017-05-24T04:13:28.211Z,584
2017-05-24T04:14:13.622Z,620
2017-05-24T04:15:28.256Z,668
2017-05-24T04:16:28.325Z,712
2017-05-24T04:17:28.306Z,768
2017-05-24T04:18:13.710Z,832
2017-05-24T04:19:13.131Z,880
2017-05-24T04:20:13.452Z,936
2017-05-24T04:22:13.500Z,844
2017-05-24T04:23:13.830Z,860
2017-05-24T04:24:13.549Z,892
2017-05-24T04:25:13.870Z,896
2017-05-24T04:26:13.593Z,920
2017-05-24T04:27:13.916Z,920
2017-05-24T04:28:13.945Z,964
2017-05-24T04:29:28.277Z,984
2017-05-24T04:30:28.603Z,1068
2017-05-24T04:31:13.705Z,1116
2017-05-24T04:32:14.033Z,1152
2017-05-24T04:33:14.061Z,1188
2017-05-24T04:34:14.083Z,1188
2017-05-24T04:36:14.128Z,1068
2017-05-24T04:37:28.765Z,1080
2017-05-24T04:38:13.869Z,1084
2017-05-24T04:39:14.195Z,1128
2017-05-24T04:40:14.219Z,1180
2017-05-24T04:41:14.241Z,1148
2017-05-24T04:42:28.881Z,1148
2017-05-24T04:43:14.285Z,1168
2017-05-24T04:44:14.308Z,1148
2017-05-24T04:45:14.330Z,1116
2017-05-24T04:46:28.970Z,1100
2017-05-24T04:47:14.074Z,1068
2017-05-24T04:49:14.433Z,1204
2017-05-24T04:51:14.468Z,1468
2017-05-24T04:52:14.192Z,1432
2017-05-24T04:53:29.130Z,1392
2017-05-24T04:54:14.537Z,1424
2017-05-24T04:55:14.258Z,1428
2017-05-24T04:56:14.281Z,1468
2017-05-24T04:57:14.608Z,1520
2017-05-24T04:58:14.328Z,1540
2017-05-24T04:59:14.347Z,1536
2017-05-24T05:00:14.675Z,1504
2017-05-24T05:01:14.394Z,1392
2017-05-24T05:02:14.417Z,1224
2017-05-24T05:03:14.445Z,1116
2017-05-24T05:04:15.073Z,1016
2017-05-24T05:06:14.209Z,1000
2017-05-24T05:07:14.839Z,1260
2017-05-24T05:08:14.866Z,1488
2017-05-24T05:09:29.504Z,1808
2017-05-24T05:11:14.623Z,1988
2017-05-24T05:12:14.649Z,2104
2017-05-24T05:13:14.675Z,2020
2017-05-24T05:14:14.699Z,1956
2017-05-24T05:15:14.716Z,2132
2017-05-24T05:16:15.045Z,2188
2017-05-24T05:17:14.765Z,2156
2017-05-24T05:19:29.734Z,2076
2017-05-24T05:20:14.841Z,2016
2017-05-24T05:21:14.857Z,1948
2017-05-24T05:22:15.191Z,1920
2017-05-24T05:23:14.899Z,1912
2017-05-24T05:24:15.232Z,1848
2017-05-24T05:25:29.865Z,1832
2017-05-24T05:26:15.272Z,1804
2017-05-24T05:27:15.301Z,1768
2017-05-24T05:28:15.022Z,1916
2017-05-24T05:29:29.659Z,2044
2017-05-24T05:30:15.365Z,1968
2017-05-24T05:31:15.388Z,1780
2017-05-24T05:32:29.726Z,1464
2017-05-24T05:33:15.434Z,1328
2017-05-24T05:34:15.155Z,1460
2017-05-24T05:35:30.097Z,1408
2017-05-24T05:36:15.201Z,1368
2017-05-24T05:37:30.145Z,1324
2017-05-24T05:38:15.552Z,1308
2017-05-24T05:39:15.576Z,1456
2017-05-24T05:40:30.219Z,1756
2017-05-24T05:41:15.624Z,2136
2017-05-24T05:42:15.643Z,2280
2017-05-24T05:43:15.669Z,2392
2017-05-24T05:44:30.310Z,2156
2017-05-24T05:45:15.714Z,2040
2017-05-24T05:46:15.430Z,1968
2017-05-24T05:47:15.821Z,1888
2017-05-24T05:48:30.398Z,1792
2017-05-24T05:49:15.804Z,1748
2017-05-24T05:50:15.526Z,1464
2017-05-24T05:51:15.852Z,1236
2017-05-24T05:52:15.899Z,1044
2017-05-24T05:54:15.621Z,1092
2017-05-24T05:55:15.943Z,1180
2017-05-24T05:56:15.970Z,1112
2017-05-24T05:57:15.993Z,1212
2017-05-24T05:58:16.017Z,1188
2017-05-24T05:59:16.037Z,1188
2017-05-24T06:00:16.060Z,1136
2017-05-24T06:01:16.083Z,1116
2017-05-24T06:02:16.106Z,1264
2017-05-24T06:03:15.831Z,1260
2017-05-24T06:05:30.487Z,1072
2017-05-24T06:06:16.201Z,1004
2017-05-24T06:07:30.839Z,972
2017-05-24T06:09:30.885Z,992
2017-05-24T06:10:15.987Z,932
2017-05-24T06:11:16.314Z,860
2017-05-24T06:12:30.951Z,820
2017-05-24T06:13:16.360Z,820
2017-05-24T06:14:16.389Z,772
2017-05-24T06:15:16.404Z,796
2017-05-24T06:16:16.127Z,816
2017-05-24T06:17:16.456Z,864
2017-05-24T06:18:31.093Z,908
2017-05-24T06:19:16.500Z,920
2017-05-24T06:20:31.147Z,836
2017-05-24T06:21:16.547Z,880
2017-05-24T06:22:31.182Z,1120
2017-05-24T06:25:16.637Z,1452
2017-05-24T06:27:16.683Z,1228
2017-05-24T06:28:31.323Z,1156
2017-05-24T06:29:16.737Z,1136
2017-05-24T06:30:16.446Z,1360
2017-05-24T06:31:16.775Z,1612
2017-05-24T06:32:16.798Z,1852
2017-05-24T06:33:16.821Z,2036
2017-05-24T06:34:16.846Z,2264
2017-05-24T06:35:16.868Z,2492
2017-05-24T06:36:16.888Z,2744
2017-05-24T06:37:31.224Z,3088
2017-05-24T06:38:16.936Z,3240
2017-05-24T06:39:16.961Z,3272
2017-05-24T06:41:17.004Z,3060
2017-05-24T06:42:17.030Z,3048
2017-05-24T06:43:17.050Z,3168
2017-05-24T06:44:31.687Z,3836
2017-05-24T06:45:16.791Z,4280
2017-05-24T06:46:17.121Z,4488
2017-05-24T06:47:16.536Z,4584
2017-05-24T06:48:17.169Z,4572
2017-05-24T06:49:16.886Z,4468
2017-05-24T06:50:17.211Z,4392
2017-05-24T06:51:17.236Z,4428
2017-05-24T06:52:17.256Z,4644
2017-05-24T06:53:17.285Z,4836
2017-05-24T06:54:16.999Z,4816
2017-05-24T06:55:17.330Z,4716
2017-05-24T06:56:17.409Z,4656
2017-05-24T06:57:17.374Z,4612
2017-05-24T06:58:17.398Z,4320
2017-05-24T06:59:17.421Z,4088
2017-05-24T07:00:31.761Z,4080
2017-05-24T07:01:17.468Z,4128
2017-05-24T07:02:17.492Z,4364
2017-05-24T07:03:17.519Z,4612
2017-05-24T07:04:17.239Z,5024
2017-05-24T07:05:17.256Z,5980
2017-05-24T07:06:17.583Z,7712
2017-05-24T07:07:32.227Z,7060
2017-05-24T07:08:17.638Z,7360
2017-05-24T07:09:17.353Z,8240
2017-05-24T07:10:17.375Z,12652
2017-05-24T07:11:17.701Z,9092
2017-05-24T07:12:17.729Z,10956
2017-05-24T07:13:17.445Z,19680
2017-05-24T07:14:17.472Z,12164
2017-05-24T07:15:32.110Z,14660
2017-05-24T07:16:17.823Z,17024
2017-05-24T07:17:17.846Z,14152
2017-05-24T07:18:17.872Z,13748
2017-05-24T07:19:17.590Z,14544
2017-05-24T07:20:17.921Z,15532
2017-05-24T07:21:17.946Z,15228
2017-05-24T07:22:17.965Z,13612
2017-05-24T07:23:17.993Z,11772
2017-05-24T07:24:18.020Z,10792
2017-05-24T07:25:32.355Z,9928
2017-05-24T07:26:18.075Z,9472
2017-05-24T07:27:18.102Z,8928
2017-05-24T07:28:18.113Z,8756
2017-05-24T07:29:18.141Z,8912
2017-05-24T07:31:18.191Z,9664
2017-05-24T07:32:18.210Z,9204
2017-05-24T07:33:18.237Z,9100
2017-05-24T07:34:18.259Z,9176
2017-05-24T07:35:18.288Z,9780
2017-05-24T07:36:18.315Z,11092
2017-05-24T07:37:32.957Z,11880
2017-05-24T07:38:18.385Z,11840
2017-05-24T07:39:33.001Z,10912
2017-05-24T07:40:18.410Z,10432
2017-05-24T07:41:18.434Z,9824
2017-05-24T07:43:18.184Z,9516
2017-05-24T07:44:18.510Z,9200
2017-05-24T07:45:18.530Z,10080
2017-05-24T07:46:18.556Z,10792
2017-05-24T07:47:33.198Z,10528
2017-05-24T07:48:18.606Z,9812
2017-05-24T07:49:18.637Z,8828
2017-05-24T07:50:18.656Z,8440
2017-05-24T07:51:18.684Z,7708
2017-05-24T07:52:18.709Z,7708
2017-05-24T07:53:18.729Z,7696
2017-05-24T07:54:18.453Z,7588
2017-05-24T07:55:33.395Z,7384
2017-05-24T07:56:18.501Z,6992
2017-05-24T07:57:18.526Z,6788
2017-05-24T07:58:18.852Z,6348
2017-05-24T07:59:18.910Z,6152
2017-05-24T08:00:18.903Z,5980
2017-05-24T08:01:33.543Z,5696
2017-05-24T08:02:18.951Z,5456
2017-05-24T08:03:33.590Z,5256
2017-05-24T08:04:19.009Z,5272
2017-05-24T08:05:19.024Z,5000
2017-05-24T08:06:19.051Z,5476
2017-05-24T08:07:19.075Z,5756
2017-05-24T08:08:19.097Z,5648
2017-05-24T08:09:19.124Z,5244
2017-05-24T08:10:19.153Z,5056
2017-05-24T08:11:19.181Z,4716
2017-05-24T08:12:18.897Z,5436
2017-05-24T08:13:19.231Z,6316
2017-05-24T08:14:19.249Z,6616
2017-05-24T08:15:19.270Z,6268
2017-05-24T08:16:19.293Z,5652
2017-05-24T08:17:19.320Z,4928
2017-05-24T08:19:33.990Z,5468
2017-05-24T08:21:19.419Z,5264
2017-05-24T08:22:19.445Z,5176
2017-05-24T08:23:19.465Z,5084
2017-05-24T08:24:19.492Z,5084
2017-05-24T08:25:34.133Z,5200
2017-05-24T08:26:19.591Z,5268
2017-05-24T08:27:19.561Z,5672
2017-05-24T08:28:19.589Z,5764
2017-05-24T08:29:19.614Z,5964
2017-05-24T08:30:19.642Z,6160
2017-05-24T08:32:19.739Z,6040
2017-05-24T08:33:19.710Z,5804
2017-05-24T08:34:19.739Z,5464
2017-05-24T08:35:34.373Z,5300
2017-05-24T08:36:19.785Z,5344
2017-05-24T08:37:19.807Z,5352
2017-05-24T08:38:19.835Z,5120
2017-05-24T08:39:19.856Z,4932
2017-05-24T08:40:19.881Z,4780
2017-05-24T08:41:34.522Z,4824
2017-05-24T08:42:19.927Z,4776
2017-05-24T08:43:19.962Z,4924
2017-05-24T08:44:19.987Z,4740
2017-05-24T08:45:34.617Z,4300
2017-05-24T08:46:34.652Z,4256
2017-05-24T08:47:19.745Z,4460
2017-05-24T08:48:19.773Z,4260
2017-05-24T08:50:34.437Z,4336
2017-05-24T08:51:20.151Z,4692
2017-05-24T08:52:20.172Z,5140
2017-05-24T08:53:20.195Z,4888
2017-05-24T08:54:20.222Z,5136
2017-05-24T08:55:34.864Z,5372
2017-05-24T08:56:20.021Z,5144
2017-05-24T08:57:19.990Z,4720
2017-05-24T08:58:20.083Z,4228
2017-05-24T08:59:20.344Z,4220
2017-05-24T09:00:20.071Z,4708
2017-05-24T09:01:20.090Z,4340
2017-05-24T09:02:20.116Z,4588
2017-05-24T09:04:20.460Z,4660
2017-05-24T09:05:20.484Z,4708
2017-05-24T09:06:20.510Z,5608
2017-05-24T09:07:20.540Z,6216
2017-05-24T09:08:20.555Z,6612
2017-05-24T09:09:34.900Z,6872
2017-05-24T09:10:20.301Z,6548
2017-05-24T09:11:20.635Z,5856
2017-05-24T09:12:20.046Z,5332
2017-05-24T09:13:20.682Z,5656
2017-05-24T09:14:34.713Z,7232
2017-05-24T09:15:20.420Z,7972
2017-05-24T09:16:20.788Z,8444
2017-05-24T09:17:35.093Z,8620
2017-05-24T09:19:20.833Z,9956
2017-05-24T09:20:20.547Z,10032
2017-05-24T09:21:20.873Z,10168
2017-05-24T09:22:35.519Z,10140
2017-05-24T09:23:20.922Z,9940
2017-05-24T09:24:20.948Z,9628
2017-05-24T09:25:20.364Z,8684
2017-05-24T09:26:20.995Z,8752
2017-05-24T09:27:21.021Z,8768
2017-05-24T09:28:20.746Z,8412
2017-05-24T09:29:20.772Z,7984
2017-05-24T09:30:35.407Z,7708
2017-05-24T09:31:21.125Z,7700
2017-05-24T09:32:21.141Z,7688
2017-05-24T09:33:21.174Z,7408
2017-05-24T09:34:35.507Z,6912
2017-05-24T09:35:20.914Z,6588
2017-05-24T09:36:20.941Z,6144
2017-05-24T09:37:20.962Z,5824
2017-05-24T09:38:35.913Z,5516
2017-05-24T09:39:21.316Z,5344
2017-05-24T09:40:21.339Z,5104
2017-05-24T09:41:21.364Z,4748
2017-05-24T09:42:21.391Z,4232
2017-05-24T09:43:36.034Z,4000
2017-05-24T09:44:21.441Z,3884
2017-05-24T09:45:21.470Z,4140
2017-05-24T09:46:21.487Z,4380
2017-05-24T09:47:21.515Z,4960
2017-05-24T09:48:21.538Z,5032
2017-05-24T09:49:21.563Z,4976
2017-05-24T09:50:21.589Z,5368
2017-05-24T09:52:21.638Z,5248
2017-05-24T09:53:21.662Z,5884
2017-05-24T09:54:35.996Z,6060
2017-05-24T09:55:21.708Z,6208
2017-05-24T09:56:21.736Z,5956
2017-05-24T09:57:21.758Z,5484
2017-05-24T09:58:21.784Z,6096
2017-05-24T09:59:21.813Z,6076
2017-05-24T10:00:21.830Z,5196
2017-05-24T10:02:21.573Z,5656
2017-05-24T10:03:21.913Z,6004
2017-05-24T10:04:21.927Z,5248
2017-05-24T10:05:21.951Z,4392
2017-05-24T10:06:21.975Z,3956
2017-05-24T10:07:22.006Z,4212
2017-05-24T10:09:22.052Z,3940
2017-05-24T10:10:36.689Z,4192
2017-05-24T10:11:22.099Z,4372
2017-05-24T10:12:22.128Z,4440
2017-05-24T10:13:22.153Z,4576
2017-05-24T10:14:21.869Z,4764
2017-05-24T10:15:21.893Z,5880
2017-05-24T10:16:36.840Z,7068
2017-05-24T10:17:22.245Z,7452
2017-05-24T10:18:22.272Z,8356
2017-05-24T10:19:22.299Z,9340
2017-05-24T10:20:22.386Z,10256
2017-05-24T10:22:36.984Z,11492
2017-05-24T10:24:22.421Z,11256
2017-05-24T10:25:37.073Z,12800
2017-05-24T10:26:22.466Z,13432
2017-05-24T10:27:22.492Z,14180
2017-05-24T10:28:21.912Z,13588
2017-05-24T10:29:22.543Z,13084
2017-05-24T10:30:36.881Z,11944
2017-05-24T10:31:22.586Z,10936
2017-05-24T10:32:36.930Z,10004
2017-05-24T10:33:22.336Z,9540
2017-05-24T10:34:22.363Z,9160
2017-05-24T10:35:22.687Z,9568
2017-05-24T10:36:22.718Z,9984
2017-05-24T10:37:37.358Z,10164
2017-05-24T10:38:22.764Z,10052
2017-05-24T10:39:22.799Z,9960
2017-05-24T10:40:22.812Z,9408
2017-05-24T10:41:22.844Z,9304
2017-05-24T10:42:22.259Z,8748
2017-05-24T10:43:22.892Z,8672
2017-05-24T10:44:22.919Z,9420
2017-05-24T10:45:22.945Z,10084
2017-05-24T10:46:22.967Z,10412
2017-05-24T10:47:22.989Z,10424
2017-05-24T10:48:37.634Z,10408
2017-05-24T10:49:37.659Z,9956
2017-05-24T10:50:22.766Z,9260
2017-05-24T10:51:22.787Z,9380
2017-05-24T10:52:37.429Z,8864
2017-05-24T10:53:23.146Z,8476
2017-05-24T10:54:22.870Z,8608
2017-05-24T10:55:23.191Z,7780
2017-05-24T10:56:22.915Z,7208
2017-05-24T10:57:37.858Z,8392
2017-05-24T10:58:22.961Z,8936
2017-05-24T10:59:22.990Z,8580
2017-05-24T11:00:23.318Z,8008
2017-05-24T11:01:23.343Z,7632
2017-05-24T11:02:23.368Z,6832
2017-05-24T11:03:23.094Z,6440
2017-05-24T11:04:23.120Z,6596
2017-05-24T11:06:38.085Z,5796
2017-05-24T11:07:23.492Z,6008
2017-05-24T11:08:23.518Z,6516
2017-05-24T11:09:23.252Z,6684
2017-05-24T11:11:23.595Z,6536
2017-05-24T11:12:23.617Z,5744
2017-05-24T11:13:38.257Z,5380
2017-05-24T11:14:23.668Z,5600
2017-05-24T11:15:23.689Z,5656
2017-05-24T11:16:23.716Z,5632
2017-05-24T11:17:23.744Z,6480
2017-05-24T11:18:23.209Z,7132
2017-05-24T11:19:23.790Z,7368
2017-05-24T11:20:23.816Z,7912
2017-05-24T11:21:23.844Z,8600
2017-05-24T11:22:38.483Z,9656
2017-05-24T11:23:23.899Z,9740
2017-05-24T11:24:23.315Z,9756
2017-05-24T11:25:38.559Z,10316
2017-05-24T11:27:23.688Z,10316
2017-05-24T11:28:23.717Z,10524
2017-05-24T11:29:38.654Z,10756
2017-05-24T11:30:23.760Z,10816
2017-05-24T11:31:23.795Z,10872
2017-05-24T11:32:23.812Z,11060
2017-05-24T11:33:23.535Z,11564
2017-05-24T11:34:23.864Z,11636
2017-05-24T11:35:23.887Z,11772
2017-05-24T11:36:24.214Z,11600
2017-05-24T11:37:23.940Z,11456
2017-05-24T11:38:23.965Z,11272
2017-05-24T11:39:24.293Z,10952
2017-05-24T11:40:23.707Z,10828
2017-05-24T11:41:24.340Z,10764
2017-05-24T11:43:24.394Z,10904
2017-05-24T11:44:23.560Z,11096
2017-05-24T11:45:39.061Z,11400
2017-05-24T11:46:24.191Z,11312
2017-05-24T11:47:24.493Z,11376
2017-05-24T11:48:24.266Z,11540
2017-05-24T11:49:23.635Z,11612
2017-05-24T11:50:24.266Z,12096
2017-05-24T11:51:24.357Z,11572
2017-05-24T11:52:24.317Z,10972
2017-05-24T11:53:24.346Z,10284
2017-05-24T11:54:24.682Z,9676
2017-05-24T11:55:24.699Z,9724
2017-05-24T11:56:24.121Z,9672
2017-05-24T11:57:39.368Z,9344
2017-05-24T11:58:24.786Z,9480
2017-05-24T11:59:24.503Z,9696
2017-05-24T12:00:39.446Z,10000
2017-05-24T12:01:24.856Z,10952
2017-05-24T12:02:24.577Z,8992
2017-05-24T12:03:24.910Z,9528
2017-05-24T12:04:24.933Z,8984
2017-05-24T12:05:24.959Z,9628
2017-05-24T12:06:24.685Z,9924
2017-05-24T12:07:24.707Z,9624
2017-05-24T12:08:25.047Z,9096
2017-05-24T12:09:39.677Z,8096
2017-05-24T12:10:24.782Z,8220
2017-05-24T12:11:25.112Z,9040
2017-05-24T12:12:25.139Z,9636
2017-05-24T12:13:24.860Z,9468
2017-05-24T12:14:25.190Z,9532
2017-05-24T12:15:25.213Z,9388
2017-05-24T12:16:25.238Z,9280
2017-05-24T12:17:25.272Z,9576
2017-05-24T12:18:25.291Z,9212
2017-05-24T12:19:39.941Z,10152
2017-05-24T12:20:25.408Z,9296
2017-05-24T12:21:25.372Z,9332
2017-05-24T12:22:25.400Z,9472
2017-05-24T12:23:25.423Z,9600
2017-05-24T12:24:25.469Z,9360
2017-05-24T12:25:25.475Z,9704
2017-05-24T12:26:25.502Z,10360
2017-05-24T12:27:25.223Z,10436
2017-05-24T12:29:25.586Z,10616
2017-05-24T12:31:25.640Z,11348
2017-05-24T12:32:40.342Z,13220
2017-05-24T12:33:25.681Z,10420
2017-05-24T12:34:25.406Z,10280
2017-05-24T12:35:40.357Z,9904
2017-05-24T12:36:25.759Z,9804
2017-05-24T12:37:25.490Z,9164
2017-05-24T12:38:40.433Z,9188
2017-05-24T12:39:40.153Z,9112
2017-05-24T12:40:25.259Z,8940
2017-05-24T12:41:25.587Z,8912
2017-05-24T12:42:25.612Z,8836
2017-05-24T12:44:25.669Z,9020
2017-05-24T12:47:25.744Z,9352
2017-05-24T12:48:40.400Z,9164
2017-05-24T12:49:26.104Z,8972
2017-05-24T12:50:26.128Z,8480
2017-05-24T12:51:26.155Z,8188
2017-05-24T12:52:26.177Z,7500
2017-05-24T12:53:26.211Z,6348
2017-05-24T12:54:26.229Z,5468
2017-05-24T12:55:26.256Z,4912
2017-05-24T12:56:40.900Z,4468
2017-05-24T12:57:26.312Z,4256
2017-05-24T12:58:26.335Z,4016
2017-05-24T13:00:26.082Z,3908
2017-05-24T13:01:26.413Z,3904
2017-05-24T13:02:26.137Z,3860
2017-05-24T13:03:25.558Z,3840
2017-05-24T13:04:41.108Z,4076
2017-05-24T13:05:26.212Z,4344
2017-05-24T13:06:26.239Z,4564
2017-05-24T13:07:26.264Z,4988
2017-05-24T13:08:26.895Z,5468
2017-05-24T13:09:26.620Z,5692
2017-05-24T13:10:26.646Z,5652
2017-05-24T13:11:41.288Z,5528
2017-05-24T13:12:26.391Z,5512
2017-05-24T13:13:26.724Z,5576
2017-05-24T13:14:26.746Z,5556
2017-05-24T13:15:26.770Z,5292
2017-05-24T13:16:26.795Z,4968
2017-05-24T13:17:26.823Z,4712
2017-05-24T13:19:26.874Z,4248
2017-05-24T13:20:41.514Z,4160
2017-05-24T13:21:26.924Z,4120
2017-05-24T13:22:26.951Z,4088
2017-05-24T13:23:26.676Z,4028
2017-05-24T13:24:26.698Z,3936
2017-05-24T13:25:27.025Z,3900
2017-05-24T13:26:26.753Z,3920
2017-05-24T13:27:26.774Z,3940
2017-05-24T13:28:27.111Z,3924
2017-05-24T13:29:27.139Z,3932
2017-05-24T13:30:26.854Z,3964
2017-05-24T13:31:27.177Z,4088
2017-05-24T13:32:41.821Z,4320
2017-05-24T13:33:27.232Z,4420
2017-05-24T13:34:26.953Z,4448
2017-05-24T13:35:41.897Z,4360
2017-05-24T13:36:27.002Z,4324
2017-05-24T13:37:27.332Z,4192
2017-05-24T13:38:27.356Z,4152
2017-05-24T13:39:27.389Z,4288
2017-05-24T13:40:27.405Z,4384
2017-05-24T13:41:42.054Z,4368
2017-05-24T13:42:27.456Z,4364
2017-05-24T13:43:27.198Z,4368
2017-05-24T13:44:41.824Z,4372
2017-05-24T13:45:41.846Z,4388
2017-05-24T13:46:27.557Z,4444
2017-05-24T13:47:27.287Z,4496
2017-05-24T13:48:27.611Z,4524
2017-05-24T13:49:27.334Z,4524
2017-05-24T13:50:27.661Z,4456
2017-05-24T13:51:27.683Z,4364
2017-05-24T13:52:27.412Z,4268
2017-05-24T13:53:27.739Z,4232
2017-05-24T13:54:27.766Z,4200
2017-05-24T13:55:27.787Z,4196
2017-05-24T13:56:27.809Z,4292
2017-05-24T13:57:27.839Z,4492
2017-05-24T13:58:27.861Z,4520
2017-05-24T13:59:27.887Z,4424
2017-05-24T14:00:27.908Z,4300
2017-05-24T14:01:27.935Z,4148
2017-05-24T14:02:27.961Z,3956
2017-05-24T14:03:42.604Z,3748
2017-05-24T14:04:28.020Z,3664
2017-05-24T14:05:28.035Z,3576
2017-05-24T14:06:28.058Z,3536
2017-05-24T14:07:42.703Z,3504
2017-05-24T14:08:28.115Z,3496
2017-05-24T14:09:28.138Z,3460
2017-05-24T14:10:28.166Z,3420
2017-05-24T14:11:27.580Z,3352
2017-05-24T14:12:27.911Z,3276
2017-05-24T14:13:42.553Z,3196
2017-05-24T14:14:27.961Z,3184
2017-05-24T14:15:42.602Z,3208
2017-05-24T14:16:28.009Z,3260
2017-05-24T14:17:28.032Z,3368
2017-05-24T14:18:28.062Z,3456
2017-05-24T14:19:28.392Z,3492
2017-05-24T14:20:43.030Z,3500
2017-05-24T14:21:28.146Z,3512
2017-05-24T14:22:28.159Z,3588
2017-05-24T14:23:43.109Z,3788
2017-05-24T14:24:28.216Z,4008
2017-05-24T14:25:28.539Z,4400
2017-05-24T14:26:28.568Z,4768
2017-05-24T14:27:28.589Z,5028
2017-05-24T14:28:28.315Z,5124
2017-05-24T14:29:28.651Z,5016